createdAt,value
2023-05-20T00:00:41.678Z,68.19
2023-05-20T00:01:41.666Z,67.54
2023-05-20T00:02:41.768Z,68.80
2023-05-20T00:03:41.745Z,68.16
2023-05-20T00:04:41.660Z,67.68
2023-05-20T00:05:41.794Z,68.09
2023-05-20T00:06:41.618Z,68.36
2023-05-20T00:07:41.604Z,68.32
2023-05-20T00:08:41.600Z,69.38
2023-05-20T00:09:41.605Z,68.57
2023-05-20T00:10:41.594Z,68.06
2023-05-20T00:11:41.593Z,66.83
2023-05-20T00:12:41.552Z,66.80
2023-05-20T00:13:41.541Z,67.44
2023-05-20T00:14:41.535Z,67.75
2023-05-20T00:15:41.524Z,69.28
2023-05-20T00:16:41.555Z,67.98
2023-05-20T00:17:41.529Z,68.19
2023-05-20T00:18:41.545Z,68.36
2023-05-20T00:19:41.478Z,67.75
2023-05-20T00:20:41.475Z,68.70
2023-05-20T00:21:41.462Z,68.39
2023-05-20T00:22:41.451Z,68.83
2023-05-20T00:23:41.436Z,67.98
2023-05-20T00:24:41.427Z,68.19
2023-05-20T00:25:41.419Z,68.16
2023-05-20T00:26:41.409Z,68.29
2023-05-20T00:27:41.412Z,68.57
2023-05-20T00:28:41.399Z,68.90
2023-05-20T00:29:41.376Z,69.65
2023-05-20T00:30:41.365Z,69.72
2023-05-20T00:31:41.379Z,68.87
2023-05-20T00:32:41.396Z,69.45
2023-05-20T00:33:41.332Z,69.18
2023-05-20T00:34:41.326Z,68.57
2023-05-20T00:35:41.310Z,67.82
2023-05-20T00:36:41.305Z,68.46
2023-05-20T00:37:41.287Z,68.97
2023-05-20T00:38:41.289Z,68.74
2023-05-20T00:39:41.280Z,68.73
2023-05-20T00:40:41.263Z,68.90
2023-05-20T00:41:41.249Z,69.28
2023-05-20T00:42:41.238Z,69.11
2023-05-20T00:43:41.239Z,68.77
2023-05-20T00:44:41.246Z,68.93
2023-05-20T00:45:41.214Z,69.55
2023-05-20T00:46:41.201Z,68.46
2023-05-20T00:47:41.243Z,69.04
2023-05-20T00:48:41.212Z,69.04
2023-05-20T00:49:41.163Z,69.31
2023-05-20T00:50:41.153Z,69.45
2023-05-20T00:51:41.140Z,69.21
2023-05-20T00:52:41.132Z,69.78
2023-05-20T00:53:41.119Z,69.75
2023-05-20T00:54:41.113Z,70.77
2023-05-20T00:55:41.097Z,69.79
2023-05-20T00:56:41.102Z,71.80
2023-05-20T00:57:41.081Z,72.00
2023-05-20T00:58:41.072Z,71.02
2023-05-20T00:59:42.881Z,70.84
2023-05-20T01:00:41.050Z,70.26
2023-05-20T01:01:41.052Z,71.15
2023-05-20T01:02:41.090Z,71.56
2023-05-20T01:03:41.164Z,70.98
2023-05-20T01:04:41.008Z,70.60
2023-05-20T01:05:42.435Z,70.84
2023-05-20T01:06:40.993Z,71.39
2023-05-20T01:07:40.975Z,71.45
2023-05-20T01:08:40.976Z,71.80
2023-05-20T01:09:40.954Z,71.69
2023-05-20T01:10:40.941Z,72.13
2023-05-20T01:11:40.930Z,71.93
2023-05-20T01:12:40.921Z,72.24
2023-05-20T01:13:40.910Z,72.51
2023-05-20T01:14:40.911Z,72.44
2023-05-20T01:16:31.720Z,72.44
2023-05-20T01:17:31.683Z,72.00
2023-05-20T01:18:31.648Z,72.58
2023-05-20T01:19:31.633Z,71.90
2023-05-20T01:20:31.626Z,72.65
2023-05-20T01:21:31.607Z,72.10
2023-05-20T01:22:31.633Z,72.24
2023-05-20T01:23:31.591Z,72.79
2023-05-20T01:24:31.585Z,72.65
2023-05-20T01:25:31.606Z,73.43
2023-05-20T01:26:31.559Z,73.26
2023-05-20T01:27:31.550Z,73.94
2023-05-20T01:28:31.538Z,73.16
2023-05-20T01:29:31.531Z,74.32
2023-05-20T01:30:31.523Z,73.98
2023-05-20T01:31:31.549Z,73.53
2023-05-20T01:32:31.562Z,74.11
2023-05-20T01:33:31.483Z,74.11
2023-05-20T01:34:31.475Z,74.28
2023-05-20T01:35:31.469Z,74.49
2023-05-20T01:36:31.456Z,74.08
2023-05-20T01:37:31.445Z,74.52
2023-05-20T01:38:31.430Z,74.49
2023-05-20T01:39:31.418Z,74.93
2023-05-20T01:40:31.422Z,74.69
2023-05-20T01:41:31.399Z,74.96
2023-05-20T01:42:31.391Z,75.00
2023-05-20T01:43:31.379Z,75.17
2023-05-20T01:44:31.377Z,75.58
2023-05-20T01:45:31.422Z,75.27
2023-05-20T01:46:31.379Z,75.89
2023-05-20T01:47:31.399Z,76.26
2023-05-20T01:48:31.358Z,75.95
2023-05-20T01:49:31.333Z,75.68
2023-05-20T01:50:31.307Z,74.52
2023-05-20T01:51:31.296Z,74.15
2023-05-20T01:52:31.287Z,75.48
2023-05-20T01:53:31.275Z,74.49
2023-05-20T01:54:31.263Z,74.66
2023-05-20T01:55:31.305Z,74.15
2023-05-20T01:56:31.246Z,74.01
2023-05-20T01:57:31.234Z,73.67
2023-05-20T01:58:31.218Z,73.84
2023-05-20T01:59:31.206Z,74.08
2023-05-20T02:00:31.227Z,74.83
2023-05-20T02:01:31.213Z,75.00
2023-05-20T02:02:31.256Z,75.27
2023-05-20T02:03:31.170Z,76.53
2023-05-20T02:04:31.180Z,75.95
2023-05-20T02:05:31.170Z,76.60
2023-05-20T02:06:31.134Z,76.23
2023-05-20T02:07:31.134Z,75.78
2023-05-20T02:08:31.116Z,76.06
2023-05-20T02:09:31.106Z,75.78
2023-05-20T02:10:31.091Z,76.40
2023-05-20T02:11:31.089Z,76.06
2023-05-20T02:12:31.082Z,76.23
2023-05-20T02:13:31.058Z,76.64
2023-05-20T02:14:31.060Z,77.11
2023-05-20T02:15:31.075Z,76.87
2023-05-20T02:16:31.080Z,77.31
2023-05-20T02:17:31.069Z,77.56
2023-05-20T02:18:31.010Z,77.66
2023-05-20T02:19:31.105Z,77.56
2023-05-20T02:20:31.016Z,77.45
2023-05-20T02:21:30.978Z,77.86
2023-05-20T02:22:30.967Z,77.59
2023-05-20T02:23:30.958Z,77.63
2023-05-20T02:24:30.942Z,77.72
2023-05-20T02:25:30.950Z,77.63
2023-05-20T02:26:30.925Z,77.79
2023-05-20T02:27:30.914Z,78.17
2023-05-20T02:28:30.905Z,78.24
2023-05-20T02:29:30.903Z,78.07
2023-05-20T02:30:30.885Z,78.71
2023-05-20T02:31:30.873Z,79.30
2023-05-20T02:32:30.861Z,79.54
2023-05-20T02:33:30.877Z,79.23
2023-05-20T02:34:30.934Z,79.77
2023-05-20T02:35:30.845Z,79.60
2023-05-20T02:36:30.844Z,79.33
2023-05-20T02:37:30.805Z,79.37
2023-05-20T02:38:30.806Z,79.71
2023-05-20T02:39:30.793Z,80.32
2023-05-20T02:40:30.778Z,80.42
2023-05-20T02:41:30.775Z,80.18
2023-05-20T02:42:30.763Z,80.19
2023-05-20T02:43:30.751Z,80.60
2023-05-20T02:44:30.736Z,80.54
2023-05-20T02:45:30.724Z,80.87
2023-05-20T02:46:30.742Z,80.97
2023-05-20T02:47:30.772Z,80.70
2023-05-20T02:48:30.693Z,80.29
2023-05-20T02:49:30.686Z,80.77
2023-05-20T02:50:30.667Z,80.60
2023-05-20T02:51:30.658Z,80.46
2023-05-20T02:52:30.674Z,80.87
2023-05-20T02:53:30.637Z,80.73
2023-05-20T02:54:30.627Z,80.97
2023-05-20T02:55:30.617Z,80.83
2023-05-20T02:56:30.615Z,80.69
2023-05-20T02:57:30.594Z,80.77
2023-05-20T02:58:30.584Z,80.97
2023-05-20T02:59:30.574Z,80.87
2023-05-20T03:00:30.571Z,81.55
2023-05-20T03:01:30.649Z,81.41
2023-05-20T03:02:30.549Z,81.41
2023-05-20T03:03:30.529Z,81.48
2023-05-20T03:04:30.539Z,81.75
2023-05-20T03:05:30.508Z,81.79
2023-05-20T03:06:30.501Z,81.65
2023-05-20T03:07:30.486Z,81.34
2023-05-20T03:08:30.505Z,81.38
2023-05-20T03:09:30.471Z,81.48
2023-05-20T03:10:30.454Z,81.51
2023-05-20T03:11:30.445Z,81.71
2023-05-20T03:12:30.435Z,82.43
2023-05-20T03:13:30.426Z,81.92
2023-05-20T03:14:30.414Z,82.10
2023-05-20T03:15:30.404Z,82.10
2023-05-20T03:16:30.442Z,82.30
2023-05-20T03:17:30.411Z,82.20
2023-05-20T03:18:30.373Z,82.02
2023-05-20T03:19:30.409Z,81.62
2023-05-20T03:20:30.347Z,81.69
2023-05-20T03:21:30.349Z,81.73
2023-05-20T03:22:30.325Z,82.30
2023-05-20T03:23:30.314Z,82.10
2023-05-20T03:24:30.327Z,82.10
2023-05-20T03:25:30.305Z,81.75
2023-05-20T03:26:30.282Z,82.14
2023-05-20T03:27:30.283Z,82.00
2023-05-20T03:28:30.262Z,81.89
2023-05-20T03:29:30.253Z,82.06
2023-05-20T03:30:30.240Z,81.45
2023-05-20T03:31:30.245Z,81.69
2023-05-20T03:32:30.279Z,81.96
2023-05-20T03:33:30.213Z,82.00
2023-05-20T03:34:30.212Z,82.88
2023-05-20T03:35:30.194Z,82.78
2023-05-20T03:36:30.229Z,84.55
2023-05-20T03:37:30.169Z,83.12
2023-05-20T03:38:30.156Z,82.65
2023-05-20T03:39:30.147Z,82.51
2023-05-20T03:40:30.184Z,84.64
2023-05-20T03:41:30.135Z,82.33
2023-05-20T03:42:30.112Z,94.84
2023-05-20T03:43:30.111Z,96.82
2023-05-20T03:44:30.100Z,97.74
2023-05-20T03:45:30.081Z,98.51
2023-05-20T03:46:30.097Z,99.27
2023-05-20T03:47:30.080Z,99.99
2023-05-20T03:48:30.055Z,99.99
2023-05-20T03:49:30.034Z,99.99
2023-05-20T03:50:30.026Z,99.99
2023-05-20T03:51:30.040Z,99.99
2023-05-20T03:52:30.009Z,99.99
2023-05-20T03:53:30.000Z,99.99
2023-05-20T03:54:29.983Z,99.99
2023-05-20T03:55:29.977Z,99.99
2023-05-20T03:56:29.997Z,99.99
2023-05-20T03:57:29.954Z,99.99
2023-05-20T03:58:29.951Z,99.99
2023-05-20T03:59:29.961Z,99.99
2023-05-20T04:00:29.920Z,99.99
2023-05-20T04:01:29.915Z,99.99
2023-05-20T04:02:30.113Z,99.99
2023-05-20T04:03:29.940Z,99.99
2023-05-20T04:04:29.878Z,99.99
2023-05-20T04:05:29.872Z,99.99
2023-05-20T04:06:29.860Z,99.99
2023-05-20T04:07:29.869Z,99.99
2023-05-20T04:08:29.835Z,99.99
2023-05-20T04:09:29.827Z,99.99
2023-05-20T04:10:29.820Z,99.99
2023-05-20T04:11:29.810Z,99.99
2023-05-20T04:12:29.817Z,99.99
2023-05-20T04:13:29.789Z,99.99
2023-05-20T04:14:30.172Z,99.99
2023-05-20T04:15:29.778Z,99.99
2023-05-20T04:16:29.807Z,99.99
2023-05-20T04:17:29.782Z,99.99
2023-05-20T04:18:29.731Z,99.99
2023-05-20T04:19:29.747Z,99.99
2023-05-20T04:20:29.716Z,99.99
2023-05-20T04:21:29.706Z,99.99
2023-05-20T04:22:29.692Z,99.99
2023-05-20T04:23:29.679Z,99.99
2023-05-20T04:24:29.667Z,99.69
2023-05-20T04:25:29.658Z,98.91
2023-05-20T04:26:29.652Z,98.87
2023-05-20T04:27:29.636Z,99.59
2023-05-20T04:28:29.647Z,99.54
2023-05-20T04:29:29.619Z,98.62
2023-05-20T04:30:29.601Z,99.54
2023-05-20T04:31:29.630Z,99.38
2023-05-20T04:32:29.588Z,99.07
2023-05-20T04:33:29.580Z,99.27
2023-05-20T04:34:29.564Z,98.00
2023-05-20T04:35:29.546Z,98.51
2023-05-20T04:36:29.547Z,98.87
2023-05-20T04:37:29.529Z,98.66
2023-05-20T04:38:29.930Z,98.82
2023-05-20T04:39:29.503Z,98.66
2023-05-20T04:40:29.501Z,98.47
2023-05-20T04:41:29.491Z,99.39
2023-05-20T04:42:29.507Z,99.07
2023-05-20T04:43:29.503Z,98.67
2023-05-20T04:44:29.501Z,98.62
2023-05-20T04:45:29.444Z,98.88
2023-05-20T04:46:29.453Z,98.47
2023-05-20T04:47:29.462Z,98.76
2023-05-20T04:48:29.422Z,98.25
2023-05-20T04:49:29.401Z,97.44
2023-05-20T04:50:29.394Z,98.25
2023-05-20T04:51:29.395Z,97.39
2023-05-20T04:52:29.365Z,96.52
2023-05-20T04:53:29.363Z,94.98
2023-05-20T04:54:29.347Z,95.38
2023-05-20T04:55:29.338Z,94.69
2023-05-20T04:56:29.325Z,95.95
2023-05-20T04:57:29.317Z,95.80
2023-05-20T04:58:29.311Z,95.39
2023-05-20T04:59:29.309Z,95.05
2023-05-20T05:00:29.322Z,94.72
2023-05-20T05:01:29.355Z,93.71
2023-05-20T05:02:29.277Z,94.48
2023-05-20T05:03:29.275Z,94.02
2023-05-20T05:04:29.258Z,93.93
2023-05-20T05:05:29.236Z,94.34
2023-05-20T05:06:29.222Z,92.44
2023-05-20T05:07:29.218Z,92.18
2023-05-20T05:08:29.204Z,93.61
2023-05-20T05:09:29.191Z,92.73
2023-05-20T05:10:29.179Z,92.70
2023-05-20T05:11:29.172Z,90.14
2023-05-20T05:12:29.163Z,90.51
2023-05-20T05:13:29.150Z,91.78
2023-05-20T05:14:29.142Z,89.43
2023-05-20T05:15:29.135Z,90.41
2023-05-20T05:16:29.244Z,91.02
2023-05-20T05:17:29.335Z,89.69
2023-05-20T05:18:29.096Z,87.20
2023-05-20T05:19:29.118Z,85.93
2023-05-20T05:20:29.076Z,85.97
2023-05-20T05:21:29.070Z,85.62
2023-05-20T05:22:29.054Z,84.97
2023-05-20T05:23:29.063Z,84.77
2023-05-20T05:24:29.033Z,85.79
2023-05-20T05:25:29.022Z,85.28
2023-05-20T05:26:29.015Z,84.25
2023-05-20T05:27:29.013Z,85.18
2023-05-20T05:28:28.996Z,83.26
2023-05-20T05:29:28.981Z,82.52
2023-05-20T05:30:28.974Z,83.30
2023-05-20T05:31:28.963Z,81.60
2023-05-20T05:32:29.038Z,82.14
2023-05-20T05:33:28.955Z,80.44
2023-05-20T05:34:28.927Z,80.12
2023-05-20T05:35:28.917Z,81.59
2023-05-20T05:36:28.905Z,81.22
2023-05-20T05:37:28.897Z,80.98
2023-05-20T05:38:28.879Z,80.06
2023-05-20T05:39:28.886Z,80.26
2023-05-20T05:40:28.863Z,78.80
2023-05-20T05:41:28.852Z,79.17
2023-05-20T05:42:28.855Z,78.49
2023-05-20T05:43:28.838Z,79.88
2023-05-20T05:44:28.846Z,80.02
2023-05-20T05:45:28.815Z,77.70
2023-05-20T05:46:28.951Z,77.09
2023-05-20T05:47:28.813Z,77.70
2023-05-20T05:48:28.800Z,77.33
2023-05-20T05:49:28.768Z,75.84
2023-05-20T05:50:28.753Z,75.64
2023-05-20T05:51:28.744Z,75.60
2023-05-20T05:52:28.733Z,74.21
2023-05-20T05:53:28.725Z,75.26
2023-05-20T05:54:28.722Z,74.04
2023-05-20T05:55:28.705Z,74.68
2023-05-20T05:56:28.689Z,74.58
2023-05-20T05:57:28.683Z,75.39
2023-05-20T05:58:28.668Z,74.38
2023-05-20T05:59:28.657Z,74.38
2023-05-20T06:00:28.654Z,72.85
2023-05-20T06:01:28.693Z,72.27
2023-05-20T06:02:28.736Z,72.68
2023-05-20T06:03:28.667Z,72.99
2023-05-20T06:04:28.681Z,71.53
2023-05-20T06:05:31.635Z,71.42
2023-05-20T06:06:28.586Z,70.45
2023-05-20T06:07:28.575Z,69.87
2023-05-20T06:08:28.562Z,68.62
2023-05-20T06:09:28.553Z,69.20
2023-05-20T06:10:28.575Z,67.64
2023-05-20T06:11:28.533Z,67.41
2023-05-20T06:12:28.531Z,66.60
2023-05-20T06:13:28.509Z,66.43
2023-05-20T06:14:28.496Z,66.49
2023-05-20T06:15:28.488Z,63.93
2023-05-20T06:16:28.504Z,64.41
2023-05-20T06:17:28.500Z,64.03
2023-05-20T06:18:28.462Z,66.94
2023-05-20T06:19:28.495Z,66.06
2023-05-20T06:20:28.503Z,65.14
2023-05-20T06:21:28.426Z,66.06
2023-05-20T06:22:28.413Z,66.00
2023-05-20T06:23:28.409Z,64.54
2023-05-20T06:24:28.394Z,65.31
2023-05-20T06:25:28.384Z,63.91
2023-05-20T06:26:28.372Z,64.68
2023-05-20T06:27:28.368Z,63.03
2023-05-20T06:28:28.357Z,63.54
2023-05-20T06:29:28.345Z,61.96
2023-05-20T06:30:28.332Z,64.52
2023-05-20T06:31:28.416Z,63.31
2023-05-20T06:32:28.324Z,62.34
2023-05-20T06:33:28.305Z,62.43
2023-05-20T06:34:28.295Z,61.02
2023-05-20T06:35:28.294Z,62.46
2023-05-20T06:36:28.313Z,61.66
2023-05-20T06:37:28.309Z,62.67
2023-05-20T06:38:28.252Z,63.17
2023-05-20T06:39:28.245Z,61.96
2023-05-20T06:40:28.232Z,62.87
2023-05-20T06:41:28.226Z,60.16
2023-05-20T06:42:28.227Z,60.89
2023-05-20T06:43:28.201Z,60.56
2023-05-20T06:44:28.195Z,59.19
2023-05-20T06:45:28.196Z,60.01
2023-05-20T06:46:28.237Z,60.82
2023-05-20T06:47:28.193Z,60.99
2023-05-20T06:48:28.152Z,61.09
2023-05-20T06:49:28.142Z,59.12
2023-05-20T06:50:28.139Z,59.35
2023-05-20T06:51:28.136Z,58.21
2023-05-20T06:52:28.136Z,61.07
2023-05-20T06:53:28.104Z,58.81
2023-05-20T06:54:28.087Z,63.49
2023-05-20T06:55:28.082Z,59.62
2023-05-20T06:56:28.070Z,58.59
2023-05-20T06:57:28.069Z,56.64
2023-05-20T06:58:28.056Z,59.55
2023-05-20T06:59:28.041Z,59.72
2023-05-20T07:00:28.032Z,59.09
2023-05-20T07:01:28.050Z,57.78
2023-05-20T07:02:28.029Z,56.54
2023-05-20T07:03:28.032Z,58.21
2023-05-20T07:04:27.983Z,60.33
2023-05-20T07:05:27.984Z,57.83
2023-05-20T07:06:27.973Z,57.48
2023-05-20T07:07:27.962Z,57.65
2023-05-20T07:08:27.967Z,57.68
2023-05-20T07:09:27.945Z,57.75
2023-05-20T07:10:27.928Z,58.06
2023-05-20T07:11:27.940Z,59.50
2023-05-20T07:12:27.906Z,61.93
2023-05-20T07:13:27.940Z,62.60
2023-05-20T07:14:27.883Z,62.80
2023-05-20T07:15:27.884Z,63.43
2023-05-20T07:16:28.006Z,63.43
2023-05-20T07:17:27.885Z,64.65
2023-05-20T07:18:27.855Z,66.43
2023-05-20T07:19:27.881Z,64.41
2023-05-20T07:20:27.821Z,65.53
2023-05-20T07:21:27.821Z,66.91
2023-05-20T07:22:27.802Z,66.13
2023-05-20T07:23:27.794Z,61.32
2023-05-20T07:24:27.800Z,62.84
2023-05-20T07:25:27.771Z,63.54
2023-05-20T07:26:27.783Z,62.94
2023-05-20T07:27:27.747Z,63.28
2023-05-20T07:28:27.739Z,63.17
2023-05-20T07:29:27.731Z,62.80
2023-05-20T07:30:27.721Z,62.39
2023-05-20T07:31:27.732Z,64.19
2023-05-20T07:32:27.709Z,64.04
2023-05-20T07:33:27.688Z,63.71
2023-05-20T07:34:27.687Z,63.91
2023-05-20T07:35:27.666Z,66.21
2023-05-20T07:36:27.697Z,65.96
2023-05-20T07:37:27.646Z,65.36
2023-05-20T07:38:27.633Z,64.72
2023-05-20T07:39:27.625Z,65.93
2023-05-20T07:40:27.634Z,65.69
2023-05-20T07:41:27.601Z,65.83
2023-05-20T07:42:27.591Z,65.79
2023-05-20T07:43:27.588Z,65.76
2023-05-20T07:44:27.777Z,66.50
2023-05-20T07:45:27.560Z,66.91
2023-05-20T07:46:27.569Z,66.07
2023-05-20T07:47:27.575Z,65.63
2023-05-20T07:48:27.535Z,66.17
2023-05-20T07:49:27.542Z,65.86
2023-05-20T07:50:27.508Z,64.94
2023-05-20T07:51:27.491Z,65.86
2023-05-20T07:52:27.486Z,66.83
2023-05-20T07:53:27.478Z,67.34
2023-05-20T07:54:27.467Z,68.53
2023-05-20T07:55:27.465Z,66.17
2023-05-20T07:56:27.468Z,67.14
2023-05-20T07:57:27.430Z,67.04
2023-05-20T07:58:27.426Z,65.42
2023-05-20T07:59:27.416Z,66.43
2023-05-20T08:00:27.414Z,67.21
2023-05-20T08:01:27.419Z,68.35
2023-05-20T08:02:27.460Z,67.51
2023-05-20T08:03:27.540Z,69.30
2023-05-20T08:04:27.838Z,68.09
2023-05-20T08:05:27.370Z,67.71
2023-05-20T08:06:29.652Z,68.12
2023-05-20T08:07:27.329Z,67.48
2023-05-20T08:08:27.318Z,67.24
2023-05-20T08:09:27.307Z,66.88
2023-05-20T08:10:27.298Z,66.74
2023-05-20T08:11:27.288Z,67.21
2023-05-20T08:12:27.301Z,66.17
2023-05-20T08:13:27.269Z,65.73
2023-05-20T08:14:27.253Z,65.50
2023-05-20T08:15:27.242Z,65.25
2023-05-20T08:16:27.281Z,65.02
2023-05-20T08:17:27.266Z,65.59
2023-05-20T08:18:27.212Z,65.39
2023-05-20T08:19:27.238Z,65.66
2023-05-20T08:20:27.191Z,64.88
2023-05-20T08:21:27.178Z,67.21
2023-05-20T08:22:27.175Z,66.54
2023-05-20T08:23:27.161Z,66.90
2023-05-20T08:24:27.150Z,67.17
2023-05-20T08:25:27.138Z,66.80
2023-05-20T08:26:27.127Z,66.94
2023-05-20T08:27:27.115Z,67.17
2023-05-20T08:28:27.134Z,66.03
2023-05-20T08:29:27.100Z,66.04
2023-05-20T08:30:27.083Z,66.37
2023-05-20T08:31:27.146Z,65.70
2023-05-20T08:32:27.095Z,64.04
2023-05-20T08:33:27.057Z,64.96
2023-05-20T08:34:27.049Z,66.68
2023-05-20T08:35:27.036Z,65.06
2023-05-20T08:36:27.021Z,67.42
2023-05-20T08:37:27.016Z,64.48
2023-05-20T08:38:27.000Z,63.03
2023-05-20T08:39:26.992Z,65.86
2023-05-20T08:40:26.976Z,65.93
2023-05-20T08:41:26.972Z,64.85
2023-05-20T08:42:26.980Z,64.92
2023-05-20T08:43:26.948Z,64.88
2023-05-20T08:44:26.957Z,66.54
2023-05-20T08:45:26.926Z,65.50
2023-05-20T08:46:26.949Z,63.98
2023-05-20T08:47:26.927Z,64.11
2023-05-20T08:48:26.897Z,64.89
2023-05-20T08:49:26.886Z,64.79
2023-05-20T08:50:26.872Z,63.34
2023-05-20T08:51:26.870Z,64.28
2023-05-20T08:52:26.854Z,64.45
2023-05-20T08:53:26.838Z,65.41
2023-05-20T08:54:26.832Z,65.03
2023-05-20T08:55:26.855Z,64.33
2023-05-20T08:56:28.755Z,61.74
2023-05-20T08:57:26.802Z,62.07
2023-05-20T08:58:26.812Z,60.26
2023-05-20T08:59:26.793Z,62.07
2023-05-20T09:00:26.907Z,62.92
2023-05-20T09:01:26.788Z,62.88
2023-05-20T09:02:26.780Z,62.48
2023-05-20T09:03:26.749Z,63.66
2023-05-20T09:04:26.738Z,64.57
2023-05-20T09:05:26.712Z,63.82
2023-05-20T09:06:26.706Z,63.99
2023-05-20T09:07:26.699Z,63.08
2023-05-20T09:08:26.702Z,62.65
2023-05-20T09:09:26.679Z,63.15
2023-05-20T09:10:26.673Z,61.08
2023-05-20T09:11:26.655Z,61.31
2023-05-20T09:12:26.644Z,60.93
2023-05-20T09:13:26.683Z,61.68
2023-05-20T09:14:26.621Z,63.63
2023-05-20T09:15:26.621Z,62.35
2023-05-20T09:16:26.656Z,63.28
2023-05-20T09:17:26.639Z,63.96
2023-05-20T09:18:26.585Z,63.49
2023-05-20T09:19:26.627Z,63.04
2023-05-20T09:20:26.561Z,63.51
2023-05-20T09:21:26.546Z,64.63
2023-05-20T09:22:26.538Z,63.79
2023-05-20T09:23:26.528Z,63.18
2023-05-20T09:24:26.741Z,61.97
2023-05-20T09:25:26.503Z,62.21
2023-05-20T09:26:26.491Z,64.57
2023-05-20T09:27:26.479Z,63.49
2023-05-20T09:28:26.472Z,62.71
2023-05-20T09:29:26.462Z,64.60
2023-05-20T09:30:26.451Z,65.10
2023-05-20T09:31:26.466Z,64.48
2023-05-20T09:32:26.578Z,66.81
2023-05-20T09:33:26.415Z,65.39
2023-05-20T09:34:26.406Z,63.78
2023-05-20T09:35:26.427Z,65.80
2023-05-20T09:36:26.398Z,64.34
2023-05-20T09:37:26.427Z,66.88
2023-05-20T09:38:26.390Z,66.34
2023-05-20T09:39:26.401Z,66.51
2023-05-20T09:40:26.371Z,66.13
2023-05-20T09:41:26.357Z,66.41
2023-05-20T09:42:26.340Z,66.64
2023-05-20T09:43:26.311Z,65.53
2023-05-20T09:44:26.305Z,66.44
2023-05-20T09:45:26.286Z,66.54
2023-05-20T09:46:26.325Z,68.09
2023-05-20T09:47:26.272Z,66.84
2023-05-20T09:48:26.283Z,66.37
2023-05-20T09:49:26.253Z,66.38
2023-05-20T09:50:26.235Z,67.01
2023-05-20T09:51:26.229Z,65.39
2023-05-20T09:52:26.221Z,65.90
2023-05-20T09:53:26.197Z,66.31
2023-05-20T09:54:26.266Z,66.51
2023-05-20T09:55:26.199Z,65.22
2023-05-20T09:56:26.172Z,64.19
2023-05-20T09:57:26.159Z,65.33
2023-05-20T09:58:26.152Z,65.93
2023-05-20T09:59:26.137Z,65.24
2023-05-20T10:00:26.132Z,63.72
2023-05-20T10:01:26.123Z,65.22
2023-05-20T10:02:26.178Z,66.31
2023-05-20T10:03:26.183Z,66.71
2023-05-20T10:04:26.109Z,66.27
2023-05-20T10:05:26.086Z,66.75
2023-05-20T10:06:26.059Z,67.35
2023-05-20T10:07:40.730Z,65.88
2023-05-20T10:08:27.070Z,66.18
2023-05-20T10:09:26.031Z,64.90
2023-05-20T10:10:26.019Z,64.73
2023-05-20T10:11:26.007Z,65.10
2023-05-20T10:12:26.001Z,63.95
2023-05-20T10:13:25.987Z,64.96
2023-05-20T10:14:25.978Z,63.42
2023-05-20T10:15:25.972Z,64.19
2023-05-20T10:16:25.985Z,64.19
2023-05-20T10:17:25.979Z,64.39
2023-05-20T10:18:25.949Z,65.98
2023-05-20T10:19:26.110Z,62.18
2023-05-20T10:20:25.938Z,64.80
2023-05-20T10:21:25.907Z,64.33
2023-05-20T10:22:25.898Z,64.39
2023-05-20T10:23:25.885Z,64.73
2023-05-20T10:24:25.876Z,64.02
2023-05-20T10:25:25.858Z,66.44
2023-05-20T10:26:25.858Z,63.06
2023-05-20T10:27:25.841Z,64.20
2023-05-20T10:28:25.836Z,63.12
2023-05-20T10:29:25.833Z,63.75
2023-05-20T10:30:25.806Z,64.33
2023-05-20T10:31:25.839Z,63.51
2023-05-20T10:32:25.855Z,64.47
2023-05-20T10:33:25.840Z,65.01
2023-05-20T10:34:25.771Z,62.92
2023-05-20T10:35:25.757Z,64.41
2023-05-20T10:36:25.775Z,63.60
2023-05-20T10:37:25.735Z,63.06
2023-05-20T10:38:25.731Z,64.93
2023-05-20T10:39:25.712Z,63.86
2023-05-20T10:40:25.706Z,63.73
2023-05-20T10:41:25.692Z,65.47
2023-05-20T10:42:25.681Z,63.96
2023-05-20T10:43:25.680Z,62.62
2023-05-20T10:44:25.666Z,65.01
2023-05-20T10:45:25.648Z,65.07
2023-05-20T10:46:34.981Z,63.73
2023-05-20T10:47:26.869Z,64.81
2023-05-20T10:48:25.714Z,63.20
2023-05-20T10:49:27.927Z,63.90
2023-05-20T10:50:25.600Z,63.00
2023-05-20T10:51:25.585Z,63.90
2023-05-20T10:52:25.599Z,62.89
2023-05-20T10:53:33.529Z,62.29
2023-05-20T10:54:26.585Z,63.97
2023-05-20T10:55:25.545Z,63.34
2023-05-20T10:56:25.532Z,60.99
2023-05-20T10:57:25.525Z,63.64
2023-05-20T10:58:25.511Z,63.14
2023-05-20T10:59:25.504Z,61.73
2023-05-20T11:00:25.491Z,61.76
2023-05-20T11:01:25.585Z,62.66
2023-05-20T11:02:25.481Z,62.06
2023-05-20T11:03:25.629Z,63.06
2023-05-20T11:04:25.446Z,62.19
2023-05-20T11:05:25.443Z,61.93
2023-05-20T11:06:25.426Z,62.33
2023-05-20T11:07:25.423Z,62.53
2023-05-20T11:08:29.075Z,62.17
2023-05-20T11:09:25.403Z,61.34
2023-05-20T11:10:25.385Z,61.84
2023-05-20T11:11:25.376Z,60.19
2023-05-20T11:12:25.370Z,60.73
2023-05-20T11:13:25.891Z,61.57
2023-05-20T11:14:25.341Z,62.01
2023-05-20T11:15:25.336Z,61.11
2023-05-20T11:16:25.357Z,61.24
2023-05-20T11:17:25.337Z,58.72
2023-05-20T11:18:25.314Z,59.83
2023-05-20T11:19:25.372Z,60.10
2023-05-20T11:20:25.280Z,60.63
2023-05-20T11:21:25.276Z,61.21
2023-05-20T11:22:25.271Z,59.96
2023-05-20T11:23:25.247Z,60.66
2023-05-20T11:24:25.262Z,59.55
2023-05-20T11:25:25.227Z,60.29
2023-05-20T11:26:25.226Z,62.30
2023-05-20T11:27:25.202Z,61.63
2023-05-20T11:28:25.194Z,61.60
2023-05-20T11:29:25.185Z,64.81
2023-05-20T11:30:25.178Z,61.66
2023-05-20T11:31:25.171Z,61.94
2023-05-20T11:32:25.203Z,62.64
2023-05-20T11:33:25.148Z,58.97
2023-05-20T11:34:26.840Z,59.34
2023-05-20T11:35:25.123Z,60.19
2023-05-20T11:36:28.226Z,58.23
2023-05-20T11:37:25.100Z,58.27
2023-05-20T11:38:25.100Z,57.96
2023-05-20T11:39:25.090Z,57.13
2023-05-20T11:40:27.071Z,57.64
2023-05-20T11:41:25.058Z,57.53
2023-05-20T11:42:25.048Z,57.86
2023-05-20T11:43:25.037Z,57.46
2023-05-20T11:44:25.049Z,60.00
2023-05-20T11:45:25.021Z,60.55
2023-05-20T11:46:25.058Z,58.36
2023-05-20T11:47:24.997Z,58.31
2023-05-20T11:48:24.987Z,57.88
2023-05-20T11:49:24.979Z,57.40
2023-05-20T11:50:24.964Z,57.65
2023-05-20T11:51:24.959Z,57.35
2023-05-20T11:52:24.945Z,57.55
2023-05-20T11:53:24.931Z,56.67
2023-05-20T11:54:24.923Z,55.98
2023-05-20T11:55:24.924Z,54.82
2023-05-20T11:56:24.928Z,55.59
2023-05-20T11:57:24.898Z,57.03
2023-05-20T11:58:24.899Z,55.87
2023-05-20T11:59:24.913Z,58.71
2023-05-20T12:00:25.480Z,58.91
2023-05-20T12:01:24.979Z,55.43
2023-05-20T12:02:24.894Z,56.90
2023-05-20T12:03:24.987Z,57.96
2023-05-20T12:04:24.924Z,58.81
2023-05-20T12:05:24.813Z,57.88
2023-05-20T12:06:24.795Z,56.65
2023-05-20T12:07:24.784Z,57.22
2023-05-20T12:08:24.775Z,55.39
2023-05-20T12:09:24.762Z,55.42
2023-05-20T12:10:24.758Z,54.22
2023-05-20T12:11:24.743Z,54.47
2023-05-20T12:12:24.753Z,52.99
2023-05-20T12:13:24.726Z,55.15
2023-05-20T12:14:24.711Z,54.85
2023-05-20T12:15:24.712Z,55.87
2023-05-20T12:16:24.732Z,56.32
2023-05-20T12:17:24.708Z,58.88
2023-05-20T12:18:24.675Z,57.42
2023-05-20T12:19:24.687Z,55.55
2023-05-20T12:20:24.657Z,55.02
2023-05-20T12:21:24.638Z,54.62
2023-05-20T12:22:24.628Z,57.04
2023-05-20T12:23:24.613Z,56.14
2023-05-20T12:24:24.608Z,53.09
2023-05-20T12:25:24.601Z,52.31
2023-05-20T12:26:24.580Z,54.19
2023-05-20T12:27:24.571Z,53.19
2023-05-20T12:28:24.594Z,55.37
2023-05-20T12:29:24.562Z,54.54
2023-05-20T12:30:24.538Z,54.51
2023-05-20T12:31:24.583Z,51.81
2023-05-20T12:32:24.564Z,54.82
2023-05-20T12:33:24.511Z,51.26
2023-05-20T12:34:24.503Z,52.49
2023-05-20T12:35:24.499Z,52.99
2023-05-20T12:36:24.485Z,55.74
2023-05-20T12:37:24.476Z,52.39
2023-05-20T12:38:24.453Z,52.99
2023-05-20T12:39:24.443Z,53.91
2023-05-20T12:40:24.435Z,53.34
2023-05-20T12:41:24.423Z,55.67
2023-05-20T12:42:24.415Z,52.84
2023-05-20T12:43:24.402Z,54.37
2023-05-20T12:44:24.418Z,53.24
2023-05-20T12:45:24.389Z,50.86
2023-05-20T12:46:24.414Z,52.36
2023-05-20T12:47:24.395Z,51.91
2023-05-20T12:48:24.366Z,53.09
2023-05-20T12:49:24.343Z,52.74
2023-05-20T12:50:24.344Z,54.11
2023-05-20T12:51:24.318Z,51.01
2023-05-20T12:52:24.304Z,52.46
2023-05-20T12:53:24.300Z,53.84